createdAt,value
2022-09-05T00:00:53.799Z,98504.94
2022-09-05T00:02:55.270Z,98505.75
2022-09-05T00:04:56.755Z,98511.78
2022-09-05T00:06:58.798Z,98505.91
2022-09-05T00:09:00.133Z,98497.44
2022-09-05T00:11:41.707Z,98495.78
2022-09-05T00:13:22.951Z,98499.22
2022-09-05T00:15:24.355Z,98493.25
2022-09-05T00:17:34.217Z,98505.22
2022-09-05T00:24:19.486Z,98500.13
2022-09-05T00:24:28.080Z,98502.66
2022-09-05T00:24:50.379Z,98493.34
2022-09-05T00:26:51.235Z,98501.00
2022-09-05T00:28:52.534Z,98497.59
2022-09-05T00:31:07.768Z,98501.00
2022-09-05T00:33:16.894Z,98494.19
2022-09-05T00:35:19.188Z,98498.50
2022-09-05T00:37:20.530Z,98495.09
2022-09-05T00:39:21.926Z,98495.94
2022-09-05T00:41:23.506Z,98499.34
2022-09-05T00:43:24.935Z,98495.94
2022-09-05T00:45:27.406Z,98503.66
2022-09-05T00:47:28.818Z,98501.94
2022-09-05T00:49:30.160Z,98504.50
2022-09-05T00:51:34.521Z,98506.22
2022-09-05T00:53:36.379Z,98502.81
2022-09-05T00:55:37.726Z,98502.81
2022-09-05T00:57:39.025Z,98506.22
2022-09-05T00:59:40.326Z,98510.38
2022-09-05T01:01:41.712Z,98500.16
2022-09-05T01:03:43.063Z,98504.41
2022-09-05T01:05:44.460Z,98508.69
2022-09-05T01:07:46.600Z,98504.41
2022-09-05T01:09:48.232Z,98506.94
2022-09-05T01:11:49.558Z,98504.34
2022-09-05T01:13:50.867Z,98500.91
2022-09-05T01:15:52.223Z,98503.47
2022-09-05T01:17:53.639Z,98512.81
2022-09-05T01:19:54.931Z,98507.69
2022-09-05T01:21:56.253Z,98511.94
2022-09-05T01:23:57.628Z,98509.41
2022-09-05T01:25:59.094Z,98507.69
2022-09-05T01:29:13.581Z,98518.81
2022-09-05T01:30:22.291Z,98509.41
2022-09-05T01:32:33.024Z,98514.56
2022-09-05T01:34:34.607Z,98510.34
2022-09-05T01:36:35.925Z,98517.16
2022-09-05T01:38:37.225Z,98515.50
2022-09-05T01:40:38.561Z,98519.75
2022-09-05T01:42:40.214Z,98515.53
2022-09-05T01:44:41.578Z,98508.72
2022-09-05T01:46:43.005Z,98513.84
2022-09-05T01:48:47.724Z,98510.38
2022-09-05T01:50:49.364Z,98522.31
2022-09-05T01:52:57.473Z,98514.66
2022-09-05T01:55:06.159Z,98518.91
2022-09-05T01:57:07.530Z,98516.34
2022-09-05T01:59:08.890Z,98516.34
2022-09-05T02:01:25.260Z,98514.66
2022-09-05T02:03:31.607Z,98520.66
2022-09-05T02:05:49.204Z,98516.41
2022-09-05T02:07:50.911Z,98517.19
2022-09-05T02:09:52.212Z,98515.50
2022-09-05T02:11:58.263Z,98515.44
2022-09-05T02:13:59.583Z,98412.50
2022-09-05T02:16:01.030Z,98519.72
2022-09-05T02:18:02.371Z,98522.22
2022-09-05T02:20:03.866Z,98517.06
2022-09-05T02:22:05.170Z,98521.28
2022-09-05T02:24:06.481Z,98511.06
2022-09-05T02:26:07.943Z,98524.72
2022-09-05T02:28:09.263Z,98517.06
2022-09-05T02:30:10.666Z,98519.63
2022-09-05T02:32:11.987Z,98518.72
2022-09-05T02:34:13.290Z,98519.63
2022-09-05T02:36:14.624Z,98520.47
2022-09-05T02:39:53.516Z,98516.16
2022-09-05T02:45:07.358Z,98515.22
2022-09-05T02:45:12.049Z,98508.16
2022-09-05T02:45:27.987Z,98504.16
2022-09-05T02:47:29.739Z,98524.00
2022-09-05T02:51:47.410Z,98514.81
2022-09-05T02:57:25.626Z,98520.00
2022-09-05T02:57:32.761Z,98520.00
2022-09-05T02:57:35.917Z,98515.03
2022-09-05T02:59:09.606Z,98512.63
2022-09-05T03:01:11.833Z,98517.75
2022-09-05T03:03:13.292Z,98519.50
2022-09-05T03:05:14.721Z,98516.97
2022-09-05T03:07:16.127Z,98517.84
2022-09-05T03:09:17.773Z,98508.47
2022-09-05T03:11:20.455Z,98516.16
2022-09-05T03:13:21.775Z,98514.50
2022-09-05T03:15:23.454Z,98506.84
2022-09-05T03:17:24.891Z,98513.69
2022-09-05T03:19:26.191Z,98525.66
2022-09-05T03:21:29.278Z,98511.19
2022-09-05T03:23:33.302Z,98516.31
2022-09-05T03:25:34.776Z,98512.06
2022-09-05T03:27:36.083Z,98510.38
2022-09-05T03:29:37.418Z,98512.06
2022-09-05T03:31:38.725Z,98514.63
2022-09-05T03:33:40.021Z,98512.09
2022-09-05T03:35:41.447Z,98515.50
2022-09-05T03:37:42.754Z,98518.09
2022-09-05T03:39:44.121Z,98515.56
2022-09-05T03:41:45.507Z,98513.84
2022-09-05T03:43:46.855Z,98514.72
2022-09-05T03:45:48.251Z,98509.63
2022-09-05T03:47:49.679Z,98513.88
2022-09-05T03:57:08.212Z,98509.66
2022-09-05T03:57:11.479Z,98515.63
2022-09-05T03:57:22.673Z,98516.50
2022-09-05T03:57:25.813Z,98508.84
2022-09-05T03:59:16.443Z,98515.66
2022-09-05T04:02:23.697Z,98518.25
2022-09-05T04:08:10.606Z,98525.91
2022-09-05T04:08:18.374Z,98520.00
2022-09-05T04:08:33.102Z,98525.91
2022-09-05T04:10:38.274Z,98529.34
2022-09-05T04:12:39.639Z,98518.31
2022-09-05T04:14:40.952Z,98525.97
2022-09-05T04:16:42.327Z,98527.69
2022-09-05T04:18:43.715Z,98527.69
2022-09-05T04:20:47.777Z,98526.00
2022-09-05T04:22:49.078Z,98525.16
2022-09-05T04:24:50.437Z,98537.06
2022-09-05T04:26:51.742Z,98528.56
2022-09-05T04:28:53.540Z,98529.44
2022-09-05T04:30:55.449Z,98520.94
2022-09-05T04:32:56.762Z,98534.56
2022-09-05T04:34:58.060Z,98533.72
2022-09-05T04:36:59.397Z,98541.38
2022-09-05T04:39:00.703Z,98548.22
2022-09-05T04:41:03.481Z,98537.16
2022-09-05T04:43:05.095Z,98547.34
2022-09-05T04:45:06.398Z,98548.25
2022-09-05T04:47:07.695Z,98545.69
2022-09-05T04:49:11.698Z,98548.25
2022-09-05T04:51:16.536Z,98552.50
2022-09-05T04:53:17.895Z,98549.94
2022-09-05T04:55:19.427Z,98549.94
2022-09-05T04:57:20.747Z,98555.03
2022-09-05T05:02:53.312Z,98554.22
2022-09-05T05:05:59.811Z,98559.34
2022-09-05T05:06:10.496Z,98558.47
2022-09-05T05:06:43.866Z,98555.94
2022-09-05T05:08:45.771Z,98551.72
2022-09-05T05:11:59.091Z,98553.41
2022-09-05T05:18:03.864Z,98550.00
2022-09-05T05:18:12.786Z,98549.16
2022-09-05T05:18:12.787Z,98550.03
2022-09-05T05:20:42.916Z,98548.34
2022-09-05T05:22:36.060Z,98550.88
2022-09-05T05:24:37.365Z,98552.59
2022-09-05T05:26:38.671Z,98556.03
2022-09-05T05:28:39.971Z,98564.50
2022-09-05T05:30:41.404Z,98562.84
2022-09-05T05:32:44.954Z,98566.25
2022-09-05T05:34:47.878Z,98565.38
2022-09-05T05:36:49.174Z,98568.78
2022-09-05T05:38:50.487Z,98565.38
2022-09-05T05:40:51.837Z,98564.53
2022-09-05T05:42:53.154Z,98561.13
2022-09-05T05:44:54.725Z,98555.19
2022-09-05T05:46:56.308Z,98562.00
2022-09-05T05:48:58.007Z,98559.47
2022-09-05T05:51:00.441Z,98565.38
2022-09-05T05:53:01.815Z,98563.72
2022-09-05T05:55:28.432Z,98567.13
2022-09-05T05:57:24.413Z,98565.41
2022-09-05T05:59:25.754Z,98558.59
2022-09-05T06:01:37.307Z,98563.72
2022-09-05T06:03:39.662Z,98565.41
2022-09-05T06:05:41.186Z,98564.56
2022-09-05T06:08:08.846Z,98563.72
2022-09-05T06:14:23.493Z,98565.44
2022-09-05T06:14:55.254Z,98569.69
2022-09-05T06:15:09.055Z,98566.31
2022-09-05T06:17:10.157Z,98572.25
2022-09-05T06:19:11.628Z,98570.56
2022-09-05T06:22:09.315Z,98565.44
2022-09-05T06:23:39.823Z,98568.84
2022-09-05T06:25:41.469Z,98576.50
2022-09-05T06:28:01.705Z,98578.22
2022-09-05T06:30:04.692Z,98579.91
2022-09-05T06:32:06.052Z,98581.59
2022-09-05T06:34:07.414Z,98567.16
2022-09-05T06:36:31.058Z,98571.41
2022-09-05T06:38:33.190Z,98563.75
2022-09-05T06:40:34.925Z,98568.00
2022-09-05T06:42:43.449Z,98568.84
2022-09-05T06:44:45.397Z,98568.84
2022-09-05T06:47:22.740Z,98566.28
2022-09-05T06:49:33.424Z,98568.03
2022-09-05T06:51:30.476Z,98569.69
2022-09-05T06:53:32.011Z,98561.19
2022-09-05T06:55:33.562Z,98565.47
2022-09-05T06:57:35.285Z,98570.59
2022-09-05T06:59:45.291Z,98566.28
2022-09-05T07:02:00.434Z,98566.31
2022-09-05T07:04:33.227Z,98568.84
2022-09-05T07:06:24.034Z,98573.13
2022-09-05T07:08:45.472Z,98574.84
2022-09-05T07:10:46.873Z,98579.06
2022-09-05T07:12:48.215Z,98575.69
2022-09-05T07:14:49.539Z,98579.06
2022-09-05T07:16:51.038Z,98586.72
2022-09-05T07:18:52.900Z,98581.59
2022-09-05T07:21:17.282Z,98585.00
2022-09-05T07:23:39.576Z,98590.97
2022-09-05T07:25:38.571Z,98587.56
2022-09-05T07:27:41.853Z,98585.00
2022-09-05T07:30:02.077Z,98579.06
2022-09-05T07:32:05.255Z,98587.56
2022-09-05T07:34:21.101Z,98591.81
2022-09-05T07:36:22.998Z,98592.66
2022-09-05T07:38:26.542Z,98590.13
2022-09-05T07:40:45.698Z,98597.75
2022-09-05T07:42:48.535Z,98596.88
2022-09-05T07:44:59.067Z,98597.75
2022-09-05T07:47:01.035Z,98590.88
2022-09-05T07:49:02.793Z,98595.94
2022-09-05T07:56:51.538Z,98594.19
2022-09-05T07:57:05.034Z,98582.19
2022-09-05T07:57:08.985Z,98585.63
2022-09-05T07:58:08.134Z,98583.84
2022-09-05T08:00:26.036Z,98575.31
2022-09-05T08:02:31.178Z,98584.63
2022-09-05T08:04:32.598Z,98582.03
2022-09-05T08:07:47.924Z,98581.16
2022-09-05T08:09:21.805Z,98580.28
2022-09-05T08:11:25.007Z,98574.31
2022-09-05T08:13:27.738Z,98577.69
2022-09-05T08:15:38.275Z,98579.34
2022-09-05T08:17:50.346Z,98573.38
2022-09-05T08:19:54.295Z,98578.47
2022-09-05T08:21:59.181Z,98575.91
2022-09-05T08:24:00.599Z,98577.63
2022-09-05T08:26:06.770Z,98585.22
2022-09-05T08:28:08.095Z,98583.50
2022-09-05T08:30:26.559Z,98575.84
2022-09-05T08:32:33.348Z,98586.06
2022-09-05T08:34:44.716Z,98582.63
2022-09-05T08:36:46.982Z,98586.03
2022-09-05T08:38:50.063Z,98584.28
2022-09-05T08:40:51.539Z,98580.03
2022-09-05T08:44:54.488Z,98577.47
2022-09-05T08:46:44.798Z,98574.91
2022-09-05T08:47:45.275Z,98568.03
2022-09-05T08:49:47.378Z,98571.44
2022-09-05T08:51:54.502Z,98566.28
2022-09-05T08:53:56.848Z,98564.63
2022-09-05T08:55:58.145Z,98559.50
2022-09-05T08:57:59.569Z,98555.25
2022-09-05T09:00:19.857Z,98551.84
2022-09-05T09:02:48.054Z,98437.94
2022-09-05T09:05:00.810Z,98552.63
2022-09-05T09:07:47.536Z,98546.66
2022-09-05T09:09:25.261Z,98545.78
2022-09-05T09:11:26.576Z,98543.22
2022-09-05T09:13:27.891Z,98544.03
2022-09-05T09:15:29.194Z,98538.03
2022-09-05T09:17:30.575Z,98539.72
2022-09-05T09:19:31.919Z,98537.19
2022-09-05T09:21:33.314Z,98546.53
2022-09-05T09:23:34.686Z,98545.69
2022-09-05T09:25:36.036Z,98546.53
2022-09-05T09:28:13.635Z,98559.28
2022-09-05T09:29:59.511Z,98553.31
2022-09-05T09:32:00.884Z,98555.88
2022-09-05T09:34:02.444Z,98552.47
2022-09-05T09:36:07.954Z,98554.16
2022-09-05T09:38:09.579Z,98546.50
2022-09-05T09:40:10.958Z,98554.13
2022-09-05T09:42:33.327Z,98556.69
2022-09-05T09:44:33.619Z,98560.91
2022-09-05T09:46:38.979Z,98560.06
2022-09-05T09:48:40.834Z,98557.53
2022-09-05T09:50:45.142Z,98474.09
2022-09-05T09:52:59.582Z,98550.03
2022-09-05T09:55:01.975Z,98553.50
2022-09-05T09:57:03.334Z,98549.28
2022-09-05T09:59:04.676Z,98547.59
2022-09-05T10:01:36.438Z,98550.19
2022-09-05T10:09:37.003Z,98550.22
2022-09-05T10:10:47.500Z,98538.31
2022-09-05T10:10:47.946Z,98542.59
2022-09-05T10:10:48.193Z,98537.50
2022-09-05T10:13:01.752Z,98543.28
2022-09-05T10:15:30.693Z,98540.75
2022-09-05T10:17:31.503Z,98534.81
2022-09-05T10:24:16.578Z,98530.69
2022-09-05T10:26:17.882Z,98533.16
2022-09-05T10:28:19.183Z,98533.19
2022-09-05T10:30:25.334Z,98532.28
2022-09-05T10:33:27.113Z,98528.94
2022-09-05T10:35:21.027Z,98531.31
2022-09-05T10:37:23.779Z,98537.22
2022-09-05T10:39:26.464Z,98534.53
2022-09-05T10:41:27.857Z,98531.94
2022-09-05T10:43:29.463Z,98526.81
2022-09-05T10:45:38.002Z,98528.63
2022-09-05T10:47:40.358Z,98514.19
2022-09-05T10:49:41.691Z,98526.22
2022-09-05T10:51:43.206Z,98525.44
2022-09-05T10:53:53.078Z,98524.66
2022-09-05T10:55:54.946Z,98523.84
2022-09-05T10:57:56.252Z,98527.28
2022-09-05T11:02:22.999Z,98521.34
2022-09-05T11:02:33.642Z,98517.16
2022-09-05T11:04:49.532Z,98514.63
2022-09-05T11:06:51.579Z,98518.91
2022-09-05T11:08:53.727Z,98514.69
2022-09-05T11:10:55.034Z,98518.09
2022-09-05T11:12:57.584Z,98510.47
2022-09-05T11:14:59.723Z,98515.59
2022-09-05T11:17:01.022Z,98515.63
2022-09-05T11:19:03.689Z,98511.38
2022-09-05T11:21:05.007Z,98508.00
2022-09-05T11:23:06.372Z,98513.97
2022-09-05T11:25:07.675Z,98506.34
2022-09-05T11:27:23.689Z,98367.94
2022-09-05T11:29:26.847Z,98505.50
2022-09-05T11:31:30.411Z,98508.06
2022-09-05T11:38:08.417Z,98505.56
2022-09-05T11:39:59.173Z,98505.56
2022-09-05T11:40:07.271Z,98507.25
2022-09-05T11:41:05.219Z,98509.00
2022-09-05T11:43:13.046Z,98505.59
2022-09-05T11:45:14.346Z,98503.91
2022-09-05T11:47:30.243Z,98505.59
2022-09-05T11:49:33.152Z,98498.81
2022-09-05T11:51:34.535Z,98503.06
2022-09-05T11:53:35.999Z,98499.69
2022-09-05T11:55:37.328Z,98497.16
2022-09-05T11:57:38.877Z,98497.16
2022-09-05T11:59:40.203Z,98501.41
2022-09-05T12:01:47.586Z,98499.72
2022-09-05T12:03:59.900Z,98491.19
2022-09-05T12:06:02.021Z,98496.31
2022-09-05T12:08:03.401Z,98496.31
2022-09-05T12:10:05.634Z,98493.75
2022-09-05T12:12:27.060Z,98498.84
2022-09-05T12:14:28.292Z,98492.91
2022-09-05T12:16:29.667Z,98497.97
2022-09-05T12:18:31.194Z,98497.16
2022-09-05T12:20:37.469Z,98488.63
2022-09-05T12:22:44.887Z,98492.00
2022-09-05T12:25:24.185Z,98492.88
2022-09-05T12:27:41.242Z,98498.81
2022-09-05T12:29:36.164Z,98492.06
2022-09-05T12:32:36.532Z,98493.78
2022-09-05T12:36:02.990Z,98478.47
2022-09-05T12:40:54.590Z,98488.69
2022-09-05T12:41:42.465Z,98480.19
2022-09-05T12:41:44.673Z,98485.56
2022-09-05T12:44:39.009Z,98483.38
2022-09-05T12:48:00.306Z,98475.19
2022-09-05T12:50:03.566Z,98467.44
2022-09-05T12:52:16.003Z,98470.75
2022-09-05T12:54:33.565Z,98457.56
2022-09-05T12:58:34.711Z,98460.63
2022-09-05T13:03:03.725Z,98458.34
2022-09-05T13:03:04.087Z,98455.94
2022-09-05T13:03:59.095Z,98465.41
2022-09-05T13:06:01.265Z,98455.25
2022-09-05T13:08:02.858Z,98458.69
2022-09-05T13:10:58.823Z,98461.22
2022-09-05T13:14:59.082Z,98460.66
2022-09-05T13:15:06.121Z,98462.72
2022-09-05T13:17:14.214Z,98463.78
2022-09-05T13:19:15.538Z,98458.16
2022-09-05T13:21:16.852Z,98466.34
2022-09-05T13:23:25.039Z,98457.25
2022-09-05T13:25:27.140Z,98460.34
2022-09-05T13:27:29.235Z,98458.69
2022-09-05T13:29:30.540Z,98449.75
2022-09-05T13:37:58.606Z,98464.28
2022-09-05T13:38:02.936Z,98455.72
2022-09-05T13:38:11.251Z,98462.66
2022-09-05T13:39:01.176Z,98460.53
2022-09-05T13:41:03.596Z,98453.09
2022-09-05T13:43:04.970Z,98450.66
2022-09-05T13:45:06.568Z,98447.31
2022-09-05T13:47:29.725Z,98451.56
2022-09-05T13:49:32.357Z,98450.69
2022-09-05T13:51:33.999Z,98443.78
2022-09-05T13:53:36.627Z,98445.50
2022-09-05T13:55:38.337Z,98442.88
2022-09-05T13:57:39.685Z,98445.28
2022-09-05T13:59:41.036Z,98445.09
2022-09-05T14:01:44.143Z,98441.50
2022-09-05T14:03:55.804Z,98438.84
2022-09-05T14:05:58.371Z,98437.09
2022-09-05T14:08:02.119Z,98439.47
2022-09-05T14:10:03.543Z,98434.03
2022-09-05T14:12:04.871Z,98435.97
2022-09-05T14:14:11.008Z,98431.13
2022-09-05T14:16:13.463Z,98431.31
2022-09-05T14:18:20.989Z,98429.59
2022-09-05T14:20:43.191Z,98429.19
2022-09-05T14:22:44.606Z,98414.75
2022-09-05T14:24:46.293Z,98424.19
2022-09-05T14:26:51.520Z,98417.03
2022-09-05T14:28:52.827Z,98425.22
2022-09-05T14:33:48.834Z,98421.13
2022-09-05T14:37:40.035Z,98426.16
2022-09-05T14:37:50.480Z,98423.97
2022-09-05T14:38:07.854Z,98418.72
2022-09-05T14:40:29.686Z,98419.75
2022-09-05T14:42:33.686Z,98415.56
2022-09-05T14:44:37.718Z,98421.16
2022-09-05T14:46:45.237Z,98419.88
2022-09-05T14:48:46.574Z,98416.94
2022-09-05T14:50:54.428Z,98413.97
2022-09-05T15:02:42.400Z,98409.75
2022-09-05T15:02:53.581Z,98418.28
2022-09-05T15:02:58.537Z,98415.72
2022-09-05T15:04:36.254Z,98415.72
2022-09-05T15:06:39.824Z,98419.16
2022-09-05T15:11:24.103Z,98417.44
2022-09-05T15:12:14.822Z,98423.06
2022-09-05T15:13:25.985Z,98415.84
2022-09-05T15:15:28.806Z,98407.56
2022-09-05T15:17:30.248Z,98417.75
2022-09-05T15:19:31.568Z,98412.63
2022-09-05T15:21:35.386Z,98412.53
2022-09-05T15:23:37.829Z,98412.50
2022-09-05T15:25:39.179Z,98427.06
2022-09-05T15:27:43.451Z,98414.75
2022-09-05T15:29:44.762Z,98399.00
2022-09-05T15:31:46.068Z,98405.94
2022-09-05T15:33:54.731Z,98411.94
2022-09-05T15:35:56.071Z,98411.97
2022-09-05T15:37:57.420Z,98419.69
2022-09-05T15:39:58.849Z,98418.88
2022-09-05T15:42:00.467Z,98410.41
2022-09-05T15:44:01.805Z,98408.69
2022-09-05T15:46:03.585Z,98413.56
2022-09-05T15:48:06.461Z,98417.16
2022-09-05T15:50:22.232Z,98409.94
2022-09-05T15:52:28.701Z,98407.88
2022-09-05T15:54:38.613Z,98412.94
2022-09-05T15:56:40.456Z,98411.13
2022-09-05T15:58:53.568Z,98407.44
2022-09-05T16:00:56.009Z,98403.19
2022-09-05T16:03:21.562Z,98412.56
2022-09-05T16:10:27.813Z,98414.22
2022-09-05T16:10:36.109Z,98418.91
2022-09-05T16:10:40.127Z,98416.75
2022-09-05T16:12:23.372Z,98414.69
2022-09-05T16:14:24.963Z,98414.13
2022-09-05T16:20:33.204Z,98412.25
2022-09-05T16:23:24.775Z,98414.34
2022-09-05T16:23:28.887Z,98419.25
2022-09-05T16:23:46.134Z,98415.66
2022-09-05T16:25:47.742Z,98418.78
2022-09-05T16:27:49.756Z,98412.94
2022-09-05T16:29:51.725Z,98414.41
2022-09-05T16:31:53.120Z,98422.09
2022-09-05T16:33:54.496Z,98420.25
2022-09-05T16:35:55.803Z,98414.13
2022-09-05T16:37:57.154Z,98414.22
2022-09-05T16:39:58.584Z,98415.13
2022-09-05T16:41:59.993Z,98414.28
2022-09-05T16:44:01.305Z,98403.22
2022-09-05T16:46:02.638Z,98265.84
2022-09-05T16:48:04.064Z,98403.66
2022-09-05T16:50:05.366Z,98415.28
2022-09-05T16:52:09.153Z,98413.91
2022-09-05T16:54:18.315Z,98422.53
2022-09-05T16:56:19.609Z,98411.56
2022-09-05T16:58:21.110Z,98408.22
2022-09-05T17:00:22.547Z,98410.03
2022-09-05T17:02:23.950Z,98411.75
2022-09-05T17:04:25.347Z,98410.09
2022-09-05T17:06:27.121Z,98403.31
2022-09-05T17:08:28.471Z,98414.41
2022-09-05T17:10:29.778Z,98417.88
2022-09-05T17:12:31.619Z,98409.34
2022-09-05T17:14:32.934Z,98411.94
2022-09-05T17:16:34.622Z,98405.13
2022-09-05T17:18:36.105Z,98413.69
2022-09-05T17:20:37.413Z,98408.59
2022-09-05T17:24:59.578Z,98411.19
2022-09-05T17:29:33.610Z,98414.63
2022-09-05T17:29:45.518Z,98410.41
2022-09-05T17:32:06.271Z,98269.00
2022-09-05T17:34:08.258Z,98406.34
2022-09-05T17:36:09.908Z,98395.00
2022-09-05T17:38:12.368Z,98397.38
2022-09-05T17:40:14.546Z,98391.25
2022-09-05T17:42:16.079Z,98389.56
2022-09-05T17:44:18.371Z,98388.63
2022-09-05T17:46:20.235Z,98277.69
2022-09-05T17:48:21.555Z,98397.97
2022-09-05T17:50:22.892Z,98403.03
2022-09-05T17:52:25.478Z,98400.47
2022-09-05T17:54:26.777Z,98399.66
2022-09-05T17:56:28.131Z,98400.31
2022-09-05T17:58:38.375Z,98407.13
2022-09-05T18:00:51.388Z,98400.34
2022-09-05T18:02:52.989Z,98406.03
2022-09-05T18:04:54.290Z,98434.56
2022-09-05T18:06:59.934Z,98412.88
2022-09-05T18:09:08.848Z,98415.16
2022-09-05T18:11:14.464Z,98422.53
2022-09-05T18:13:32.422Z,98431.81
2022-09-05T18:15:34.770Z,98417.22
2022-09-05T18:17:38.207Z,98421.34
2022-09-05T18:19:40.085Z,98425.66
2022-09-05T18:21:48.155Z,98422.22
2022-09-05T18:23:54.209Z,98413.53
2022-09-05T18:25:56.030Z,98422.91
2022-09-05T18:28:04.488Z,98412.56
2022-09-05T18:30:08.019Z,98420.72
2022-09-05T18:32:14.110Z,98425.69
2022-09-05T18:34:15.459Z,98423.97
2022-09-05T18:36:16.877Z,98426.56
2022-09-05T18:38:18.266Z,98420.09
2022-09-05T18:40:36.864Z,98416.84
2022-09-05T18:42:38.611Z,98422.03
2022-09-05T18:44:40.207Z,98427.22
2022-09-05T18:46:42.122Z,98416.03
2022-09-05T18:48:43.591Z,98424.59
2022-09-05T18:51:13.018Z,98417.03
2022-09-05T18:53:16.967Z,98418.63
2022-09-05T18:56:10.224Z,98415.13
2022-09-05T18:57:39.591Z,98405.72
2022-09-05T18:59:41.989Z,98413.00
2022-09-05T19:01:47.231Z,98412.59
2022-09-05T19:03:52.501Z,98408.53
2022-09-05T19:05:55.399Z,98404.81
2022-09-05T19:08:29.281Z,98407.25
2022-09-05T19:10:36.715Z,98424.97
2022-09-05T19:12:42.879Z,98421.63
2022-09-05T19:14:49.355Z,98414.72
2022-09-05T19:16:50.834Z,98413.00
2022-09-05T19:18:55.561Z,98414.06
2022-09-05T19:20:58.959Z,98416.69
2022-09-05T19:23:11.551Z,98415.97
2022-09-05T19:25:13.603Z,98412.31
2022-09-05T19:28:37.083Z,98406.91
2022-09-05T19:36:46.203Z,98401.91
2022-09-05T19:36:50.377Z,98402.63
2022-09-05T19:36:53.010Z,98405.19
2022-09-05T19:36:56.243Z,98404.28
2022-09-05T19:42:10.145Z,98411.91
2022-09-05T19:47:41.666Z,98392.50
2022-09-05T19:47:43.458Z,98404.19
2022-09-05T19:47:50.128Z,98405.09
2022-09-05T19:48:28.971Z,98393.69
2022-09-05T19:50:31.072Z,98385.56
2022-09-05T19:52:32.385Z,98386.44
2022-09-05T19:54:36.767Z,98390.06
2022-09-05T19:56:38.146Z,98390.78
2022-09-05T19:58:42.282Z,98393.66
2022-09-05T20:01:00.998Z,98383.97
2022-09-05T20:03:03.158Z,98384.63
2022-09-05T20:05:04.495Z,98382.28
2022-09-05T20:07:05.801Z,98388.00
2022-09-05T20:09:07.152Z,98376.22
2022-09-05T20:11:09.100Z,98387.47
2022-09-05T20:13:10.439Z,98383.34
2022-09-05T20:15:11.756Z,98379.22
2022-09-05T20:17:13.173Z,98386.94
2022-09-05T20:19:14.488Z,98393.84
2022-09-05T20:21:15.798Z,98390.50
2022-09-05T20:23:17.124Z,98389.75
2022-09-05T20:25:19.817Z,98394.91
2022-09-05T20:27:37.063Z,98392.41
2022-09-05T20:29:54.837Z,98396.72
2022-09-05T20:31:59.343Z,98291.19
2022-09-05T20:34:00.803Z,98389.13
2022-09-05T20:43:12.249Z,98392.59
2022-09-05T20:43:20.651Z,98391.00
2022-09-05T20:43:20.805Z,98388.38
2022-09-05T20:43:35.868Z,98385.09
2022-09-05T20:45:32.703Z,98380.81
2022-09-05T20:54:05.270Z,98384.28
2022-09-05T20:54:06.090Z,98385.19
2022-09-05T20:54:16.806Z,98390.31
2022-09-05T20:54:42.229Z,98387.78
2022-09-05T20:56:48.244Z,98387.88
2022-09-05T20:58:58.658Z,98390.44
2022-09-05T21:01:21.704Z,98382.81
2022-09-05T21:03:21.388Z,98387.94
2022-09-05T21:05:23.249Z,98376.91
2022-09-05T21:07:24.564Z,98376.94
2022-09-05T21:09:29.339Z,98379.50
2022-09-05T21:11:30.753Z,98376.97
2022-09-05T21:13:32.089Z,98382.97
2022-09-05T21:15:53.228Z,98383.81
2022-09-05T21:17:54.811Z,98383.84
2022-09-05T21:19:56.119Z,98384.72
2022-09-05T21:21:57.466Z,98383.94
2022-09-05T21:23:58.812Z,98381.38
2022-09-05T21:26:06.675Z,98384.78
2022-09-05T21:28:08.799Z,98378.88
2022-09-05T21:30:10.107Z,98372.09
2022-09-05T21:32:11.466Z,98369.56
2022-09-05T21:34:13.148Z,98377.22
2022-09-05T21:36:15.958Z,98372.16
2022-09-05T21:38:17.311Z,98376.41
2022-09-05T21:40:34.147Z,98374.72
2022-09-05T21:47:34.912Z,98370.50
2022-09-05T21:47:48.112Z,98382.44
2022-09-05T21:47:48.364Z,98373.81
2022-09-05T21:49:39.548Z,98372.16
2022-09-05T21:51:40.849Z,98371.31
2022-09-05T21:55:54.770Z,98366.09
2022-09-05T21:59:17.171Z,98365.94
2022-09-05T21:59:20.005Z,98361.72
2022-09-05T22:00:56.122Z,98370.25
2022-09-05T22:02:57.474Z,98360.00
2022-09-05T22:05:03.027Z,98352.34
2022-09-05T22:07:04.767Z,98357.47
2022-09-05T22:09:13.005Z,98354.91
2022-09-05T22:11:15.423Z,98355.81
2022-09-05T22:13:16.770Z,98350.69
2022-09-05T22:15:27.816Z,98347.28
2022-09-05T22:17:30.703Z,98350.69
2022-09-05T22:19:37.804Z,98348.13
2022-09-05T22:21:39.418Z,98354.97
2022-09-05T22:23:40.731Z,98345.63
2022-09-05T22:25:42.109Z,98335.41
2022-09-05T22:27:43.812Z,98342.22
2022-09-05T22:29:48.915Z,98331.94
2022-09-05T22:31:52.138Z,98338.75
2022-09-05T22:33:53.506Z,98342.16
2022-09-05T22:35:54.854Z,98343.03
2022-09-05T22:37:59.289Z,98343.91
2022-09-05T22:40:01.203Z,98345.63
2022-09-05T22:42:02.573Z,98343.94
2022-09-05T22:44:09.047Z,98341.38
2022-09-05T22:46:10.515Z,98342.22
2022-09-05T22:48:11.972Z,98338.81
2022-09-05T22:50:13.306Z,98342.22
2022-09-05T22:52:14.663Z,98349.03
2022-09-05T22:54:15.987Z,98342.19
2022-09-05T22:56:17.310Z,98227.00
2022-09-05T22:58:18.660Z,98340.50
2022-09-05T23:00:21.313Z,98343.09
2022-09-05T23:02:22.725Z,98343.94
2022-09-05T23:04:24.095Z,98346.53
2022-09-05T23:06:25.523Z,98348.13
2022-09-05T23:08:26.965Z,98354.16
2022-09-05T23:10:28.338Z,98352.41
2022-09-05T23:12:29.646Z,98358.41
2022-09-05T23:14:30.975Z,98352.47
2022-09-05T23:16:32.501Z,98346.53
2022-09-05T23:18:33.918Z,98348.25
2022-09-05T23:20:35.302Z,98339.72
2022-09-05T23:22:36.740Z,98339.78
2022-09-05T23:24:38.152Z,98334.66
2022-09-05T23:26:39.504Z,98328.72
2022-09-05T23:28:43.237Z,98325.28
2022-09-05T23:30:44.947Z,98329.53
2022-09-05T23:32:46.367Z,98330.41
2022-09-05T23:34:47.906Z,98325.28
2022-09-05T23:36:49.239Z,98318.47
2022-09-05T23:38:50.594Z,98315.94
2022-09-05T23:40:51.956Z,98321.03
2022-09-05T23:42:53.335Z,98315.97
2022-09-05T23:44:54.681Z,98315.97
2022-09-05T23:46:55.980Z,98313.38
2022-09-05T23:48:57.302Z,98309.91
2022-09-05T23:50:58.622Z,98310.75
2022-09-05T23:53:00.534Z,98304.69
2022-09-05T23:55:01.902Z,98312.41
2022-09-05T23:57:03.214Z,98298.91
2022-09-05T23:59:04.570Z,98294.66
